createdAt,value
2023-03-15T00:01:27.633Z,0.30
2023-03-15T00:03:55.694Z,0.30
2023-03-15T00:06:23.165Z,0.40
2023-03-15T00:08:52.320Z,0.30
2023-03-15T00:11:19.810Z,0.30
2023-03-15T00:14:10.988Z,0.30
2023-03-15T00:16:38.175Z,0.30
2023-03-15T00:19:05.543Z,0.20
2023-03-15T00:21:34.258Z,0.20
2023-03-15T00:24:02.399Z,0.20
2023-03-15T00:26:30.540Z,0.20
2023-03-15T00:28:57.816Z,0.20
2023-03-15T00:31:25.892Z,0.20
2023-03-15T00:33:56.471Z,0.20
2023-03-15T00:36:39.122Z,0.20
2023-03-15T00:39:25.968Z,0.10
2023-03-15T00:41:57.067Z,0.20
2023-03-15T00:44:25.063Z,0.10
2023-03-15T00:46:52.493Z,0.10
2023-03-15T00:49:19.617Z,0.10
2023-03-15T00:51:47.025Z,0.00
2023-03-15T00:54:14.216Z,0.00
2023-03-15T00:56:41.617Z,0.00
2023-03-15T00:59:09.583Z,0.00
2023-03-15T01:01:38.673Z,0.00
2023-03-15T01:04:05.968Z,-0.10
2023-03-15T01:06:33.019Z,-0.10
2023-03-15T01:09:02.160Z,-0.10
2023-03-15T01:11:30.309Z,-0.20
2023-03-15T01:13:59.788Z,-0.20
2023-03-15T01:16:28.234Z,-0.20
2023-03-15T01:18:56.134Z,-0.20
2023-03-15T01:21:24.417Z,-0.30
2023-03-15T01:23:51.968Z,-0.30
2023-03-15T01:26:19.560Z,-0.30
2023-03-15T01:28:47.199Z,-0.30
2023-03-15T01:31:23.955Z,-0.30
2023-03-15T01:33:51.114Z,-0.30
2023-03-15T01:36:18.674Z,-0.30
2023-03-15T01:38:46.193Z,-0.40
2023-03-15T01:41:33.673Z,-0.40
2023-03-15T01:44:00.819Z,-0.40
2023-03-15T01:46:30.268Z,-0.50
2023-03-15T01:49:00.545Z,-0.40
2023-03-15T01:51:47.001Z,-0.50
2023-03-15T01:54:53.309Z,-0.50
2023-03-15T01:57:24.160Z,-0.60
2023-03-15T01:59:57.269Z,-0.60
2023-03-15T02:02:26.594Z,-0.60
2023-03-15T02:05:00.935Z,-0.60
2023-03-15T02:07:29.451Z,-0.60
2023-03-15T02:10:04.668Z,-0.60
2023-03-15T02:12:53.186Z,-0.70
2023-03-15T02:15:21.398Z,-0.70
2023-03-15T02:17:50.696Z,-0.70
2023-03-15T02:20:42.401Z,-0.70
2023-03-15T02:23:21.177Z,-0.70
2023-03-15T02:26:23.778Z,-0.80
2023-03-15T02:28:52.100Z,-0.80
2023-03-15T02:31:20.077Z,-0.80
2023-03-15T02:33:52.561Z,-0.80
2023-03-15T02:36:25.696Z,-0.80
2023-03-15T02:38:56.523Z,-0.90
2023-03-15T02:41:40.115Z,-0.90
2023-03-15T02:44:15.047Z,-0.90
2023-03-15T02:46:46.394Z,-0.90
2023-03-15T02:49:14.228Z,-0.90
2023-03-15T02:51:42.447Z,-0.90
2023-03-15T02:54:09.504Z,-0.90
2023-03-15T02:56:36.667Z,-1.00
2023-03-15T02:59:04.437Z,-1.00
2023-03-15T03:01:38.250Z,-1.10
2023-03-15T03:04:05.756Z,-1.00
2023-03-15T03:06:32.793Z,-1.00
2023-03-15T03:08:59.968Z,-1.10
2023-03-15T03:11:30.908Z,-1.10
2023-03-15T03:13:58.057Z,-1.10
2023-03-15T03:16:25.136Z,-1.10
2023-03-15T03:18:52.270Z,-1.10
2023-03-15T03:21:19.326Z,-1.10
2023-03-15T03:23:46.418Z,-1.20
2023-03-15T03:26:17.152Z,-1.20
2023-03-15T03:28:46.480Z,-1.10
2023-03-15T03:31:23.411Z,-1.20
2023-03-15T03:33:51.130Z,-1.20
2023-03-15T03:36:25.395Z,-1.20
2023-03-15T03:38:53.990Z,-1.20
2023-03-15T03:41:21.674Z,-1.20
2023-03-15T03:43:49.087Z,-1.20
2023-03-15T03:46:16.205Z,-1.20
2023-03-15T03:48:43.248Z,-1.30
2023-03-15T03:51:11.589Z,-1.20
2023-03-15T03:53:38.620Z,-1.20
2023-03-15T03:56:07.009Z,-1.30
2023-03-15T03:58:34.467Z,-1.30
2023-03-15T04:01:01.500Z,-1.30
2023-03-15T04:03:28.838Z,-1.30
2023-03-15T04:05:59.850Z,-1.30
2023-03-15T04:08:27.344Z,-1.20
2023-03-15T04:10:56.276Z,-1.20
2023-03-15T04:13:25.282Z,-1.20
2023-03-15T04:15:57.744Z,-1.30
2023-03-15T04:18:25.198Z,-1.30
2023-03-15T04:20:54.889Z,-1.30
2023-03-15T04:23:23.294Z,-1.30
2023-03-15T04:25:51.708Z,-1.30
2023-03-15T04:28:19.729Z,-1.30
2023-03-15T04:30:51.614Z,-1.30
2023-03-15T04:33:20.877Z,-1.30
2023-03-15T04:35:48.549Z,-1.30
2023-03-15T04:38:17.102Z,-1.30
2023-03-15T04:40:44.397Z,-1.30
2023-03-15T04:43:14.170Z,-1.30
2023-03-15T04:45:41.309Z,-1.30
2023-03-15T04:48:08.422Z,-1.40
2023-03-15T04:50:35.437Z,-1.30
2023-03-15T04:53:02.605Z,-1.40
2023-03-15T04:55:30.047Z,-1.30
2023-03-15T04:57:58.488Z,-1.30
2023-03-15T05:00:25.596Z,-1.30
2023-03-15T05:02:55.228Z,-1.40
2023-03-15T05:05:24.196Z,-1.40
2023-03-15T05:07:51.327Z,-1.40
2023-03-15T05:10:19.010Z,-1.40
2023-03-15T05:12:51.069Z,-1.40
2023-03-15T05:15:19.032Z,-1.40
2023-03-15T05:17:46.618Z,-1.40
2023-03-15T05:20:15.750Z,-1.40
2023-03-15T05:22:43.495Z,-1.30
2023-03-15T05:25:11.217Z,-1.30
2023-03-15T05:27:38.841Z,-1.30
2023-03-15T05:30:07.936Z,-1.30
2023-03-15T05:32:35.392Z,-1.30
2023-03-15T05:35:04.276Z,-1.20
2023-03-15T05:37:33.018Z,-1.20
2023-03-15T05:40:01.581Z,-1.20
2023-03-15T05:42:29.525Z,-1.20
2023-03-15T05:44:57.730Z,-1.10
2023-03-15T05:47:26.817Z,-1.10
2023-03-15T05:49:53.928Z,-1.10
2023-03-15T05:52:21.086Z,-1.10
2023-03-15T05:54:48.219Z,-1.10
2023-03-15T05:57:15.250Z,-1.10
2023-03-15T05:59:42.309Z,-1.00
2023-03-15T06:02:09.380Z,-0.90
2023-03-15T06:04:38.018Z,-0.40
2023-03-15T06:07:05.349Z,1.00
2023-03-15T06:09:32.588Z,1.90
2023-03-15T06:11:59.724Z,2.40
2023-03-15T06:14:27.793Z,2.70
2023-03-15T06:16:55.336Z,2.60
2023-03-15T06:19:22.936Z,2.80
2023-03-15T06:21:50.111Z,3.20
2023-03-15T06:24:17.446Z,3.50
2023-03-15T06:26:44.539Z,4.00
2023-03-15T06:29:12.023Z,4.00
2023-03-15T06:31:39.036Z,4.00
2023-03-15T06:34:07.409Z,4.10
2023-03-15T06:36:34.792Z,4.40
2023-03-15T06:39:03.023Z,4.50
2023-03-15T06:41:32.642Z,4.10
2023-03-15T06:44:00.501Z,3.70
2023-03-15T06:46:27.773Z,4.60
2023-03-15T06:48:55.305Z,4.50
2023-03-15T06:51:22.603Z,4.20
2023-03-15T06:53:49.803Z,3.80
2023-03-15T06:56:17.386Z,4.00
2023-03-15T06:58:44.542Z,3.70
2023-03-15T07:01:16.062Z,4.60
2023-03-15T07:03:43.464Z,4.90
2023-03-15T07:06:10.931Z,4.50
2023-03-15T07:08:38.493Z,4.40
2023-03-15T07:11:06.717Z,4.20
2023-03-15T07:13:33.827Z,4.20
2023-03-15T07:16:02.065Z,4.30
2023-03-15T07:18:29.408Z,4.80
2023-03-15T07:21:01.911Z,5.20
2023-03-15T07:23:30.453Z,4.80
2023-03-15T07:25:58.360Z,4.30
2023-03-15T07:28:27.048Z,3.80
2023-03-15T07:30:59.516Z,4.20
2023-03-15T07:33:29.592Z,3.90
2023-03-15T07:35:56.892Z,3.70
2023-03-15T07:38:26.434Z,4.20
2023-03-15T07:40:53.501Z,4.90
2023-03-15T07:43:21.307Z,5.30
2023-03-15T07:45:48.709Z,5.60
2023-03-15T07:48:16.147Z,5.00
2023-03-15T07:50:43.173Z,4.40
2023-03-15T07:53:10.329Z,3.80
2023-03-15T07:55:37.526Z,3.60
2023-03-15T07:58:04.670Z,3.30
2023-03-15T08:00:32.341Z,3.00
2023-03-15T08:03:00.224Z,2.80
2023-03-15T08:05:29.025Z,2.70
2023-03-15T08:07:57.057Z,2.30
2023-03-15T08:10:24.656Z,2.20
2023-03-15T08:12:52.136Z,2.00
2023-03-15T08:15:20.904Z,2.00
2023-03-15T08:17:48.870Z,1.90
2023-03-15T08:20:17.898Z,1.80
2023-03-15T08:22:49.294Z,1.90
2023-03-15T08:25:19.186Z,1.90
2023-03-15T08:27:46.417Z,1.80
2023-03-15T08:30:15.152Z,1.80
2023-03-15T08:32:44.657Z,1.80
2023-03-15T08:35:15.549Z,1.80
2023-03-15T08:37:48.001Z,1.80
2023-03-15T08:40:19.210Z,1.70
2023-03-15T08:42:46.403Z,1.80
2023-03-15T08:45:13.565Z,1.70
2023-03-15T08:47:40.760Z,1.80
2023-03-15T08:50:19.351Z,1.70
2023-03-15T08:52:46.521Z,1.70
2023-03-15T08:55:16.299Z,1.80
2023-03-15T08:57:43.451Z,1.80
2023-03-15T09:00:20.898Z,1.70
2023-03-15T09:02:50.163Z,1.60
2023-03-15T09:05:18.064Z,1.60
2023-03-15T09:07:45.774Z,1.70
2023-03-15T09:10:18.028Z,1.70
2023-03-15T09:12:47.243Z,1.60
2023-03-15T09:15:15.329Z,1.70
2023-03-15T09:17:42.992Z,1.70
2023-03-15T09:20:19.263Z,1.70
2023-03-15T09:22:56.355Z,1.70
2023-03-15T09:25:24.592Z,1.70
2023-03-15T09:27:52.058Z,1.80
2023-03-15T09:30:20.008Z,1.90
2023-03-15T09:32:47.350Z,1.90
2023-03-15T09:35:17.278Z,1.90
2023-03-15T09:37:44.914Z,1.90
2023-03-15T09:40:31.435Z,2.00
2023-03-15T09:43:15.082Z,2.00
2023-03-15T09:46:04.222Z,2.10
2023-03-15T09:48:38.068Z,2.10
2023-03-15T09:51:24.343Z,2.10
2023-03-15T09:53:54.848Z,2.10
2023-03-15T09:56:36.755Z,2.10
2023-03-15T09:59:05.770Z,2.20
2023-03-15T10:01:39.597Z,2.30
2023-03-15T10:04:40.626Z,2.40
2023-03-15T10:07:14.689Z,2.40
2023-03-15T10:09:42.000Z,2.40
2023-03-15T10:12:22.087Z,2.50
2023-03-15T10:15:31.635Z,2.60
2023-03-15T10:18:47.686Z,2.60
2023-03-15T10:21:41.914Z,2.60
2023-03-15T10:24:32.152Z,2.60
2023-03-15T10:27:30.064Z,2.70
2023-03-15T10:29:59.435Z,2.80
2023-03-15T10:32:36.855Z,2.80
2023-03-15T10:35:16.255Z,2.70
2023-03-15T10:37:44.215Z,2.80
2023-03-15T10:40:16.200Z,2.80
2023-03-15T10:42:45.947Z,2.90
2023-03-15T10:45:20.678Z,2.90
2023-03-15T10:47:59.673Z,3.00
2023-03-15T10:50:32.448Z,3.00
2023-03-15T10:53:02.780Z,3.00
2023-03-15T10:55:37.090Z,3.00
2023-03-15T10:58:34.350Z,3.10
2023-03-15T11:01:10.384Z,3.10
2023-03-15T11:03:38.572Z,3.10
2023-03-15T11:06:26.088Z,3.20
2023-03-15T11:08:53.307Z,3.20
2023-03-15T11:11:22.331Z,3.30
2023-03-15T11:14:00.989Z,3.30
2023-03-15T11:16:35.044Z,3.30
2023-03-15T11:19:12.347Z,3.30
2023-03-15T11:21:41.519Z,3.40
2023-03-15T11:24:32.636Z,3.50
2023-03-15T11:27:02.674Z,3.50
2023-03-15T11:29:35.840Z,3.50
2023-03-15T11:32:22.769Z,3.60
2023-03-15T11:35:14.204Z,3.50
2023-03-15T11:37:49.994Z,3.60
2023-03-15T11:40:33.689Z,3.50
2023-03-15T11:43:18.722Z,3.60
2023-03-15T11:45:56.705Z,3.60
2023-03-15T11:48:42.020Z,3.70
2023-03-15T11:51:12.347Z,3.80
2023-03-15T11:54:02.323Z,3.80
2023-03-15T11:56:58.546Z,3.80
2023-03-15T11:59:27.101Z,3.80
2023-03-15T12:02:06.415Z,3.80
2023-03-15T12:04:33.890Z,3.80
2023-03-15T12:07:19.857Z,3.90
2023-03-15T12:10:35.144Z,3.90
2023-03-15T12:13:17.402Z,3.90
2023-03-15T12:15:47.065Z,3.90
2023-03-15T12:18:34.829Z,4.00
2023-03-15T12:21:10.223Z,4.00
2023-03-15T12:23:49.082Z,4.10
2023-03-15T12:26:43.919Z,4.10
2023-03-15T12:29:32.964Z,4.20
2023-03-15T12:32:03.330Z,4.30
2023-03-15T12:34:37.644Z,4.30
2023-03-15T12:37:14.415Z,4.40
2023-03-15T12:39:48.594Z,4.60
2023-03-15T12:42:33.516Z,4.70
2023-03-15T12:45:16.174Z,4.90
2023-03-15T12:47:49.990Z,5.40
2023-03-15T12:50:47.173Z,6.20
2023-03-15T12:53:29.668Z,6.70
2023-03-15T12:56:08.021Z,7.10
2023-03-15T12:58:39.272Z,7.30
2023-03-15T13:01:07.973Z,7.10
2023-03-15T13:03:36.295Z,7.30
2023-03-15T13:06:06.781Z,8.20
2023-03-15T13:08:43.445Z,8.20
2023-03-15T13:11:40.973Z,8.20
2023-03-15T13:14:35.090Z,8.10
2023-03-15T13:17:20.350Z,8.20
2023-03-15T13:20:14.660Z,8.00
2023-03-15T13:22:56.444Z,8.00
2023-03-15T13:25:32.383Z,7.60
2023-03-15T13:28:22.737Z,8.10
2023-03-15T13:30:55.537Z,8.20
2023-03-15T13:33:33.058Z,7.60
2023-03-15T13:36:11.608Z,7.10
2023-03-15T13:38:45.005Z,6.80
2023-03-15T13:41:27.278Z,6.30
2023-03-15T13:44:00.695Z,6.10
2023-03-15T13:46:30.928Z,5.70
2023-03-15T13:49:02.854Z,5.60
2023-03-15T13:51:39.352Z,5.40
2023-03-15T13:54:12.058Z,5.30
2023-03-15T13:56:55.620Z,5.20
2023-03-15T13:59:32.985Z,5.00
2023-03-15T14:02:02.834Z,5.00
2023-03-15T14:04:35.736Z,5.00
2023-03-15T14:07:19.089Z,5.00
2023-03-15T14:09:46.419Z,4.90
2023-03-15T14:12:23.283Z,4.80
2023-03-15T14:14:56.925Z,4.80
2023-03-15T14:17:31.686Z,4.70
2023-03-15T14:20:18.470Z,4.70
2023-03-15T14:22:45.831Z,4.70
2023-03-15T14:25:25.859Z,4.70
2023-03-15T14:27:53.533Z,4.80
2023-03-15T14:30:24.277Z,4.70
2023-03-15T14:32:58.928Z,4.70
2023-03-15T14:35:38.513Z,4.60
2023-03-15T14:38:19.901Z,4.60
2023-03-15T14:40:47.318Z,4.60
2023-03-15T14:43:14.891Z,4.50
2023-03-15T14:45:45.532Z,4.50
2023-03-15T14:48:28.724Z,4.60
2023-03-15T14:50:59.878Z,4.50
2023-03-15T14:53:40.007Z,4.50
2023-03-15T14:56:07.452Z,4.50
2023-03-15T14:58:34.635Z,4.50
2023-03-15T15:01:03.904Z,4.50
2023-03-15T15:03:44.044Z,4.50
2023-03-15T15:06:14.050Z,4.50
2023-03-15T15:08:45.729Z,4.50
2023-03-15T15:11:13.448Z,4.50
2023-03-15T15:13:41.390Z,4.50
2023-03-15T15:16:08.672Z,4.40
2023-03-15T15:18:37.320Z,4.40
2023-03-15T15:21:23.959Z,4.40
2023-03-15T15:23:58.529Z,4.50
2023-03-15T15:26:29.157Z,4.50
2023-03-15T15:28:56.801Z,4.50
2023-03-15T15:31:25.434Z,4.50
2023-03-15T15:33:54.155Z,4.40
2023-03-15T15:36:32.401Z,4.50
2023-03-15T15:39:07.255Z,4.40
2023-03-15T15:41:35.571Z,4.40
2023-03-15T15:44:02.823Z,4.40
2023-03-15T15:46:30.333Z,4.30
2023-03-15T15:48:58.963Z,4.40
2023-03-15T15:51:27.947Z,4.40
2023-03-15T15:53:57.684Z,4.40
2023-03-15T15:56:33.998Z,4.30
2023-03-15T15:59:04.610Z,4.30
2023-03-15T16:01:32.366Z,4.30
2023-03-15T16:04:01.701Z,4.30
2023-03-15T16:06:29.044Z,4.20
2023-03-15T16:08:56.553Z,4.20
2023-03-15T16:11:23.745Z,4.20
2023-03-15T16:13:54.138Z,4.20
2023-03-15T16:16:21.971Z,4.10
2023-03-15T16:18:49.315Z,4.10
2023-03-15T16:21:23.694Z,4.10
2023-03-15T16:23:57.818Z,4.10
2023-03-15T16:26:26.734Z,4.10
2023-03-15T16:28:55.818Z,4.00
2023-03-15T16:31:23.758Z,4.00
2023-03-15T16:33:51.434Z,4.00
2023-03-15T16:36:21.862Z,3.90
2023-03-15T16:38:50.087Z,3.90
2023-03-15T16:41:20.460Z,3.90
2023-03-15T16:43:49.318Z,3.80
2023-03-15T16:46:17.443Z,3.80
2023-03-15T16:48:44.810Z,3.80
2023-03-15T16:51:14.495Z,3.80
2023-03-15T16:53:44.679Z,3.70
2023-03-15T16:56:14.439Z,3.70
2023-03-15T16:58:43.821Z,3.60
2023-03-15T17:01:12.134Z,3.60
2023-03-15T17:03:39.390Z,3.50
2023-03-15T17:06:14.289Z,3.50
2023-03-15T17:08:46.545Z,3.40
2023-03-15T17:11:14.647Z,3.40
2023-03-15T17:13:43.105Z,3.40
2023-03-15T17:16:15.734Z,3.30
2023-03-15T17:18:43.756Z,3.30
2023-03-15T17:21:16.399Z,3.30
2023-03-15T17:23:45.241Z,3.30
2023-03-15T17:26:17.942Z,3.30
2023-03-15T17:28:45.996Z,3.30
2023-03-15T17:31:25.914Z,3.20
2023-03-15T17:33:53.158Z,3.20
2023-03-15T17:36:23.330Z,3.10
2023-03-15T17:38:51.675Z,3.10
2023-03-15T17:41:32.168Z,3.00
2023-03-15T17:43:59.788Z,3.00
2023-03-15T17:46:33.362Z,3.00
2023-03-15T17:49:02.210Z,3.00
2023-03-15T17:51:33.012Z,3.00
2023-03-15T17:54:01.238Z,2.90
2023-03-15T17:56:29.702Z,2.90
2023-03-15T17:58:57.199Z,2.80
2023-03-15T18:01:27.550Z,2.80
2023-03-15T18:03:55.524Z,2.80
2023-03-15T18:06:26.020Z,2.80
2023-03-15T18:08:53.486Z,2.80
2023-03-15T18:11:36.118Z,2.70
2023-03-15T18:14:04.241Z,2.60
2023-03-15T18:16:33.153Z,2.60
2023-03-15T18:19:02.155Z,2.60
2023-03-15T18:21:29.244Z,2.60
2023-03-15T18:23:56.477Z,2.50
2023-03-15T18:26:23.933Z,2.60
2023-03-15T18:28:51.717Z,2.60
2023-03-15T18:31:25.559Z,2.50
2023-03-15T18:33:54.089Z,2.50
2023-03-15T18:36:23.669Z,2.50
2023-03-15T18:38:53.512Z,2.40
2023-03-15T18:41:24.847Z,2.40
2023-03-15T18:43:54.045Z,2.40
2023-03-15T18:46:27.262Z,2.40
2023-03-15T18:48:54.651Z,2.40
2023-03-15T18:51:25.791Z,2.40
2023-03-15T18:53:53.182Z,2.30
2023-03-15T18:56:25.911Z,2.30
2023-03-15T18:58:54.119Z,2.30
2023-03-15T19:01:23.002Z,2.30
2023-03-15T19:03:51.229Z,2.30
2023-03-15T19:06:18.933Z,2.30
2023-03-15T19:08:46.115Z,2.20
2023-03-15T19:11:31.840Z,2.30
2023-03-15T19:13:59.295Z,2.30
2023-03-15T19:16:27.796Z,2.30
2023-03-15T19:18:55.463Z,2.30
2023-03-15T19:21:22.718Z,2.30
2023-03-15T19:23:49.737Z,2.30
2023-03-15T19:26:17.036Z,2.20
2023-03-15T19:28:44.231Z,2.20
2023-03-15T19:31:11.614Z,2.20
2023-03-15T19:33:39.042Z,2.20
2023-03-15T19:36:08.074Z,2.20
2023-03-15T19:38:35.347Z,2.10
2023-03-15T19:41:04.830Z,2.10
2023-03-15T19:43:32.740Z,2.10
2023-03-15T19:46:01.575Z,2.10
2023-03-15T19:48:29.074Z,2.10
2023-03-15T19:50:56.341Z,2.10
2023-03-15T19:53:23.792Z,2.10
2023-03-15T19:55:50.952Z,2.10
2023-03-15T19:58:18.211Z,2.10
2023-03-15T20:00:50.363Z,2.00
2023-03-15T20:03:17.813Z,2.00
2023-03-15T20:05:45.496Z,2.00
2023-03-15T20:08:12.670Z,2.00
2023-03-15T20:10:40.083Z,1.90
2023-03-15T20:13:09.383Z,1.90
2023-03-15T20:15:36.692Z,1.90
2023-03-15T20:18:08.244Z,1.90
2023-03-15T20:20:36.513Z,1.90
2023-03-15T20:23:03.827Z,1.90
2023-03-15T20:25:31.792Z,1.80
2023-03-15T20:27:59.221Z,1.80
2023-03-15T20:30:26.360Z,1.80
2023-03-15T20:33:01.356Z,1.70
2023-03-15T20:35:28.780Z,1.70
2023-03-15T20:37:56.459Z,1.70
2023-03-15T20:40:26.731Z,1.70
2023-03-15T20:42:53.828Z,1.70
2023-03-15T20:45:20.856Z,1.70
2023-03-15T20:47:48.036Z,1.60
2023-03-15T20:50:16.681Z,1.60
2023-03-15T20:52:43.749Z,1.60
2023-03-15T20:55:12.112Z,1.50
2023-03-15T20:57:45.279Z,1.50
2023-03-15T21:00:20.295Z,1.50
2023-03-15T21:02:48.273Z,1.50
2023-03-15T21:05:16.581Z,1.50
2023-03-15T21:07:44.224Z,1.40
2023-03-15T21:10:15.913Z,1.40
2023-03-15T21:12:44.353Z,1.40
2023-03-15T21:15:17.403Z,1.40
2023-03-15T21:17:45.718Z,1.30
2023-03-15T21:20:15.333Z,1.30
2023-03-15T21:22:43.238Z,1.30
2023-03-15T21:25:11.456Z,1.30
2023-03-15T21:27:38.619Z,1.30
2023-03-15T21:30:06.982Z,1.30
2023-03-15T21:32:35.859Z,1.30
2023-03-15T21:35:05.523Z,1.30
2023-03-15T21:37:33.254Z,1.30
2023-03-15T21:40:00.739Z,1.40
2023-03-15T21:42:33.598Z,1.30
2023-03-15T21:45:05.742Z,1.30
2023-03-15T21:47:33.122Z,1.20
2023-03-15T21:50:02.113Z,1.20
2023-03-15T21:52:29.360Z,1.20
2023-03-15T21:54:57.277Z,1.20
2023-03-15T21:57:24.442Z,1.20
2023-03-15T21:59:53.140Z,1.20
2023-03-15T22:02:22.442Z,1.10
2023-03-15T22:04:50.065Z,1.10
2023-03-15T22:07:17.690Z,1.00
2023-03-15T22:09:53.345Z,0.90
2023-03-15T22:12:20.545Z,0.90
2023-03-15T22:14:56.822Z,0.80
2023-03-15T22:17:31.989Z,0.70
2023-03-15T22:19:59.050Z,0.80
2023-03-15T22:22:29.469Z,0.60
2023-03-15T22:24:56.655Z,0.60
2023-03-15T22:27:23.781Z,0.50
2023-03-15T22:29:52.503Z,0.40
2023-03-15T22:32:19.765Z,0.40
2023-03-15T22:34:46.953Z,0.50
2023-03-15T22:37:13.966Z,0.40
2023-03-15T22:39:43.133Z,0.40
2023-03-15T22:42:10.269Z,0.30
2023-03-15T22:44:37.473Z,0.30
2023-03-15T22:47:07.781Z,0.20
2023-03-15T22:49:35.245Z,0.30
2023-03-15T22:52:02.344Z,0.30
2023-03-15T22:54:29.683Z,0.20
2023-03-15T22:56:56.929Z,0.20
2023-03-15T22:59:29.026Z,0.20
2023-03-15T23:01:57.304Z,0.20
2023-03-15T23:04:24.574Z,0.20
2023-03-15T23:06:52.249Z,0.20
2023-03-15T23:09:19.762Z,0.20
2023-03-15T23:11:46.984Z,0.10
2023-03-15T23:14:14.253Z,0.20
2023-03-15T23:16:42.691Z,0.10
2023-03-15T23:19:10.650Z,0.10
2023-03-15T23:21:37.700Z,0.10
2023-03-15T23:24:06.442Z,0.10
2023-03-15T23:26:37.490Z,0.10
2023-03-15T23:29:11.056Z,0.10
2023-03-15T23:31:38.882Z,0.10
2023-03-15T23:34:07.532Z,0.10
2023-03-15T23:36:35.296Z,0.10
2023-03-15T23:39:02.434Z,0.10
2023-03-15T23:41:29.428Z,0.10
2023-03-15T23:43:56.739Z,0.10
2023-03-15T23:46:25.885Z,0.10
2023-03-15T23:48:55.968Z,0.20
2023-03-15T23:51:25.045Z,0.10
2023-03-15T23:53:52.450Z,0.10
2023-03-15T23:56:19.557Z,0.10
2023-03-15T23:58:46.844Z,0.00
